createdAt,value
2019-01-19T00:02:00.159Z,9.55
2019-01-19T00:04:49.535Z,10.00
2019-01-19T00:07:47.951Z,7.00
2019-01-19T00:10:37.559Z,6.92
2019-01-19T00:13:24.165Z,6.80
2019-01-19T00:16:10.688Z,8.43
2019-01-19T00:19:04.367Z,8.95
2019-01-19T00:21:36.007Z,8.13
2019-01-19T00:24:13.367Z,8.70
2019-01-19T00:26:59.627Z,9.75
2019-01-19T00:29:45.767Z,9.90
2019-01-19T00:32:37.543Z,9.43
2019-01-19T00:35:17.856Z,8.55
2019-01-19T00:37:45.333Z,9.70
2019-01-19T00:40:25.382Z,8.35
2019-01-19T00:42:56.787Z,8.30
2019-01-19T00:45:31.099Z,7.33
2019-01-19T00:48:17.390Z,6.72
2019-01-19T00:50:57.840Z,5.40
2019-01-19T00:53:34.827Z,5.72
2019-01-19T00:56:06.496Z,5.05
2019-01-19T00:58:49.290Z,4.83
2019-01-19T01:01:47.563Z,4.67
2019-01-19T01:04:31.219Z,5.60
2019-01-19T01:07:37.482Z,6.35
2019-01-19T01:10:27.250Z,5.42
2019-01-19T01:13:16.775Z,5.78
2019-01-19T01:16:00.346Z,6.08
2019-01-19T01:18:34.653Z,4.67
2019-01-19T01:21:09.373Z,3.87
2019-01-19T01:23:55.616Z,4.22
2019-01-19T01:26:36.190Z,4.53
2019-01-19T01:29:16.484Z,5.50
2019-01-19T01:31:48.151Z,6.20
2019-01-19T01:34:31.670Z,6.12
2019-01-19T01:37:05.838Z,6.00
2019-01-19T01:39:40.255Z,7.55
2019-01-19T01:42:20.736Z,7.00
2019-01-19T01:45:17.824Z,6.37
2019-01-19T01:47:49.459Z,7.70
2019-01-19T01:50:29.811Z,6.60
2019-01-19T01:53:04.108Z,6.05
2019-01-19T01:55:35.444Z,5.15
2019-01-19T01:58:09.816Z,4.75
2019-01-19T02:00:41.519Z,5.25
2019-01-19T02:03:21.622Z,5.30
2019-01-19T02:06:08.076Z,6.60
2019-01-19T02:09:05.069Z,6.00
2019-01-19T02:11:47.794Z,6.80
2019-01-19T02:14:27.759Z,6.55
2019-01-19T02:17:21.894Z,7.00
2019-01-19T02:19:56.314Z,5.78
2019-01-19T02:22:30.734Z,4.28
2019-01-19T02:25:05.215Z,3.75
2019-01-19T02:27:42.573Z,3.65
2019-01-19T02:30:23.073Z,3.98
2019-01-19T02:33:00.577Z,3.67
2019-01-19T02:35:35.167Z,3.45
2019-01-19T02:38:21.664Z,3.90
2019-01-19T02:41:02.071Z,4.20
2019-01-19T02:43:48.638Z,5.40
2019-01-19T02:46:25.920Z,3.77
2019-01-19T02:49:03.194Z,5.08
2019-01-19T02:51:34.859Z,4.95
2019-01-19T02:54:27.568Z,4.40
2019-01-19T02:57:07.961Z,4.37
2019-01-19T03:00:03.507Z,3.55
2019-01-19T03:02:55.867Z,4.28
2019-01-19T03:05:30.037Z,3.60
2019-01-19T03:08:16.614Z,3.92
2019-01-19T03:10:59.940Z,3.95
2019-01-19T03:13:49.523Z,3.90
2019-01-19T03:16:52.628Z,4.28
2019-01-19T03:19:33.131Z,3.62
2019-01-19T03:22:04.815Z,3.62
2019-01-19T03:24:41.986Z,4.40
2019-01-19T03:27:19.607Z,3.90
2019-01-19T03:29:57.032Z,4.75
2019-01-19T03:32:34.184Z,3.92
2019-01-19T03:35:32.650Z,3.83
2019-01-19T03:38:13.183Z,4.15
2019-01-19T03:40:53.423Z,2.95
2019-01-19T03:43:27.656Z,3.33
2019-01-19T03:46:08.787Z,3.22
2019-01-19T03:48:52.387Z,3.30
2019-01-19T03:51:26.787Z,2.30
2019-01-19T03:54:04.342Z,2.40
2019-01-19T03:56:41.795Z,2.35
2019-01-19T03:59:29.726Z,2.55
2019-01-19T04:02:22.023Z,2.75
2019-01-19T04:05:10.049Z,3.65
2019-01-19T04:07:47.668Z,4.78
2019-01-19T04:10:30.987Z,4.78
2019-01-19T04:13:08.484Z,4.12
2019-01-19T04:15:56.416Z,4.25
2019-01-19T04:18:30.792Z,3.95
2019-01-19T04:21:02.501Z,4.70
2019-01-19T04:23:31.332Z,4.70
2019-01-19T04:26:01.655Z,4.87
2019-01-19T04:28:30.410Z,5.47
2019-01-19T04:30:59.007Z,4.08
2019-01-19T04:33:27.576Z,4.05
2019-01-19T04:35:56.231Z,3.58
2019-01-19T04:38:24.881Z,3.30
2019-01-19T04:40:53.701Z,3.20
2019-01-19T04:43:22.304Z,2.45
2019-01-19T04:45:50.901Z,2.70
2019-01-19T04:48:21.340Z,3.12
2019-01-19T04:50:49.961Z,2.77
2019-01-19T04:53:18.522Z,2.60
2019-01-19T04:55:47.086Z,2.83
2019-01-19T04:58:15.698Z,3.10
2019-01-19T05:00:44.262Z,3.70
2019-01-19T05:03:12.885Z,3.75
2019-01-19T05:05:41.479Z,4.25
2019-01-19T05:08:10.064Z,2.75
2019-01-19T05:10:38.648Z,3.45
2019-01-19T05:13:07.231Z,2.30
2019-01-19T05:15:35.795Z,2.52
2019-01-19T05:18:05.187Z,1.70
2019-01-19T05:20:33.758Z,1.85
2019-01-19T05:23:02.348Z,1.90
2019-01-19T05:25:30.913Z,1.50
2019-01-19T05:27:59.496Z,1.65
2019-01-19T05:30:28.061Z,1.50
2019-01-19T05:32:56.648Z,1.92
2019-01-19T05:35:25.211Z,1.55
2019-01-19T05:37:53.799Z,1.62
2019-01-19T05:40:22.367Z,2.00
2019-01-19T05:42:50.954Z,1.65
2019-01-19T05:45:19.512Z,1.82
2019-01-19T05:47:48.095Z,2.30
2019-01-19T05:50:18.903Z,2.90
2019-01-19T05:52:47.492Z,1.75
2019-01-19T05:55:16.055Z,1.62
2019-01-19T05:57:44.640Z,1.80
2019-01-19T06:00:23.083Z,2.10
2019-01-19T06:02:51.685Z,2.10
2019-01-19T06:05:20.239Z,2.90
2019-01-19T06:07:48.900Z,2.37
2019-01-19T06:10:17.996Z,3.90
2019-01-19T06:12:46.587Z,4.25
2019-01-19T06:15:15.987Z,3.08
2019-01-19T06:17:44.578Z,3.60
2019-01-19T06:20:17.736Z,2.80
2019-01-19T06:22:46.603Z,3.40
2019-01-19T06:25:16.290Z,3.35
2019-01-19T06:27:44.963Z,4.03
2019-01-19T06:30:21.472Z,3.40
2019-01-19T06:32:50.062Z,4.40
2019-01-19T06:35:18.699Z,3.92
2019-01-19T06:37:47.352Z,3.60
2019-01-19T06:40:17.760Z,2.75
2019-01-19T06:42:46.415Z,2.30
2019-01-19T06:45:17.316Z,2.87
2019-01-19T06:47:45.898Z,2.42
2019-01-19T06:50:17.539Z,2.75
2019-01-19T06:52:46.130Z,2.00
2019-01-19T06:55:20.495Z,2.42
2019-01-19T06:57:49.087Z,2.40
2019-01-19T07:00:18.490Z,2.35
2019-01-19T07:02:47.206Z,2.00
2019-01-19T07:05:15.782Z,4.20
2019-01-19T07:07:44.371Z,2.62
2019-01-19T07:10:15.279Z,4.30
2019-01-19T07:12:43.866Z,2.85
2019-01-19T07:15:13.370Z,2.40
2019-01-19T07:17:41.955Z,2.45
2019-01-19T07:20:13.263Z,2.65
2019-01-19T07:22:41.851Z,2.25
2019-01-19T07:25:10.487Z,1.87
2019-01-19T07:27:39.070Z,2.75
2019-01-19T07:30:13.315Z,2.95
2019-01-19T07:32:41.894Z,2.72
2019-01-19T07:35:10.601Z,2.70
2019-01-19T07:37:39.189Z,3.25
2019-01-19T07:40:10.854Z,2.27
2019-01-19T07:42:40.519Z,2.80
2019-01-19T07:45:11.020Z,3.05
2019-01-19T07:47:40.776Z,2.60
2019-01-19T07:50:12.344Z,2.35
2019-01-19T07:52:40.932Z,2.80
2019-01-19T07:55:12.006Z,14.05
2019-01-19T07:57:40.670Z,22.10
2019-01-19T08:00:17.634Z,21.45
2019-01-19T08:02:46.226Z,28.50
2019-01-19T08:05:14.790Z,11.35
2019-01-19T08:07:43.428Z,11.40
2019-01-19T08:10:17.438Z,6.40
2019-01-19T08:12:46.271Z,5.87
2019-01-19T08:15:20.198Z,3.90
2019-01-19T08:17:48.759Z,4.05
2019-01-19T08:20:17.392Z,4.87
2019-01-19T08:22:45.979Z,4.08
2019-01-19T08:25:14.887Z,3.77
2019-01-19T08:27:43.470Z,3.58
2019-01-19T08:30:17.787Z,3.37
2019-01-19T08:32:46.461Z,3.75
2019-01-19T08:35:16.665Z,4.15
2019-01-19T08:37:45.435Z,4.50
2019-01-19T08:40:22.201Z,4.92
2019-01-19T08:42:52.426Z,4.00
2019-01-19T08:45:21.160Z,6.03
2019-01-19T08:47:49.749Z,8.38
2019-01-19T08:50:18.315Z,8.10
2019-01-19T08:52:46.903Z,8.23
2019-01-19T08:55:15.466Z,7.28
2019-01-19T08:57:44.040Z,6.40
2019-01-19T09:00:18.162Z,6.72
2019-01-19T09:02:47.345Z,6.65
2019-01-19T09:05:16.252Z,6.92
2019-01-19T09:07:44.919Z,7.40
2019-01-19T09:10:18.544Z,8.90
2019-01-19T09:12:47.104Z,8.48
2019-01-19T09:15:21.577Z,8.40
2019-01-19T09:17:50.135Z,9.75
2019-01-19T09:20:18.723Z,12.28
2019-01-19T09:22:49.007Z,12.30
2019-01-19T09:25:17.598Z,16.52
2019-01-19T09:27:46.172Z,11.85
2019-01-19T09:30:20.383Z,10.13
2019-01-19T09:32:49.120Z,11.63
2019-01-19T09:35:18.078Z,10.32
2019-01-19T09:37:46.967Z,9.68
2019-01-19T09:40:17.835Z,10.18
2019-01-19T09:42:46.475Z,9.83
2019-01-19T09:45:19.210Z,7.83
2019-01-19T09:47:47.830Z,8.60
2019-01-19T09:50:17.767Z,9.43
2019-01-19T09:52:46.394Z,8.00
2019-01-19T09:55:15.132Z,6.62
2019-01-19T09:57:43.762Z,7.22
2019-01-19T10:00:26.639Z,5.67
2019-01-19T10:02:55.279Z,5.30
2019-01-19T10:05:25.115Z,5.00
2019-01-19T10:07:53.742Z,4.20
2019-01-19T10:10:22.487Z,5.92
2019-01-19T10:12:51.049Z,6.03
2019-01-19T10:15:20.775Z,5.40
2019-01-19T10:17:49.339Z,6.87
2019-01-19T10:20:20.731Z,7.15
2019-01-19T10:22:49.362Z,6.90
2019-01-19T10:25:18.034Z,9.93
2019-01-19T10:27:46.659Z,7.20
2019-01-19T10:30:20.639Z,5.20
2019-01-19T10:32:49.407Z,3.95
2019-01-19T10:35:18.058Z,4.90
2019-01-19T10:37:46.759Z,4.72
2019-01-19T10:40:17.350Z,4.58
2019-01-19T10:42:46.260Z,4.33
2019-01-19T10:45:17.926Z,4.95
2019-01-19T10:47:46.568Z,5.97
2019-01-19T10:50:17.286Z,4.05
2019-01-19T10:52:46.191Z,3.77
2019-01-19T10:55:17.523Z,3.22
2019-01-19T10:57:46.159Z,6.85
2019-01-19T11:00:23.118Z,4.45
2019-01-19T11:02:51.688Z,4.87
2019-01-19T11:05:20.586Z,4.47
2019-01-19T11:07:49.629Z,4.30
2019-01-19T11:10:20.414Z,4.15
2019-01-19T11:12:49.062Z,4.00
2019-01-19T11:15:18.731Z,5.65
2019-01-19T11:17:47.487Z,3.90
2019-01-19T11:20:21.240Z,5.00
2019-01-19T11:22:49.799Z,4.53
2019-01-19T11:25:18.382Z,4.60
2019-01-19T11:27:46.943Z,3.52
2019-01-19T11:30:25.831Z,4.28
2019-01-19T11:32:54.539Z,4.10
2019-01-19T11:35:23.187Z,4.20
2019-01-19T11:37:51.738Z,3.90
2019-01-19T11:40:22.664Z,3.55
2019-01-19T11:42:51.227Z,4.20
2019-01-19T11:45:21.542Z,4.45
2019-01-19T11:47:50.102Z,3.62
2019-01-19T11:50:18.956Z,4.10
2019-01-19T11:52:47.956Z,4.05
2019-01-19T11:55:21.582Z,3.70
2019-01-19T11:57:55.698Z,3.87
2019-01-19T12:00:29.119Z,3.60
2019-01-19T12:02:57.684Z,4.42
2019-01-19T12:05:26.341Z,4.00
2019-01-19T12:07:54.970Z,4.25
2019-01-19T12:10:26.367Z,4.40
2019-01-19T12:12:55.062Z,4.53
2019-01-19T12:15:23.647Z,4.22
2019-01-19T12:17:52.551Z,3.92
2019-01-19T12:20:40.067Z,4.00
2019-01-19T12:23:09.483Z,4.30
2019-01-19T12:25:39.930Z,4.08
2019-01-19T12:28:08.563Z,3.92
2019-01-19T12:30:37.142Z,4.75
2019-01-19T12:33:05.871Z,4.00
2019-01-19T12:35:34.518Z,4.15
2019-01-19T12:38:03.413Z,4.05
2019-01-19T12:40:32.058Z,4.22
2019-01-19T12:43:03.523Z,3.80
2019-01-19T12:45:40.447Z,4.80
2019-01-19T12:48:09.777Z,4.67
2019-01-19T12:50:38.359Z,4.30
2019-01-19T12:53:06.919Z,4.20
2019-01-19T12:55:35.501Z,4.10
2019-01-19T12:58:04.999Z,3.90
2019-01-19T13:00:33.583Z,3.30
2019-01-19T13:03:02.212Z,3.60
2019-01-19T13:05:39.351Z,3.22
2019-01-19T13:08:11.556Z,3.10
2019-01-19T13:10:55.070Z,2.92
2019-01-19T13:13:23.703Z,2.47
2019-01-19T13:16:01.108Z,2.50
2019-01-19T13:18:38.627Z,3.30
2019-01-19T13:21:43.275Z,3.25
2019-01-19T13:24:30.991Z,3.60
2019-01-19T13:27:14.530Z,3.45
2019-01-19T13:30:20.387Z,2.75
2019-01-19T13:33:09.995Z,2.95
2019-01-19T13:36:10.395Z,3.17
2019-01-19T13:38:56.595Z,3.70
2019-01-19T13:41:36.778Z,3.30
2019-01-19T13:44:17.279Z,2.80
2019-01-19T13:47:14.491Z,2.75
2019-01-19T13:49:55.216Z,3.52
2019-01-19T13:52:29.780Z,3.17
2019-01-19T13:55:10.041Z,2.72
2019-01-19T13:57:50.223Z,3.05
2019-01-19T14:00:36.035Z,3.70
2019-01-19T14:03:13.677Z,3.45
2019-01-19T14:05:56.970Z,3.90
2019-01-19T14:08:49.315Z,2.95
2019-01-19T14:11:32.757Z,3.17
2019-01-19T14:14:35.743Z,4.12
2019-01-19T14:17:29.928Z,2.98
2019-01-19T14:20:16.163Z,3.05
2019-01-19T14:23:11.155Z,3.60
2019-01-19T14:25:49.671Z,3.30
2019-01-19T14:28:35.934Z,3.47
2019-01-19T14:31:25.475Z,2.35
2019-01-19T14:33:59.853Z,2.50
2019-01-19T14:36:40.294Z,2.58
2019-01-19T14:39:31.595Z,2.55
2019-01-19T14:42:28.889Z,2.45
2019-01-19T14:45:03.299Z,2.35
2019-01-19T14:48:01.706Z,2.70
2019-01-19T14:50:38.926Z,2.20
2019-01-19T14:53:31.169Z,2.33
2019-01-19T14:56:23.555Z,2.27
2019-01-19T14:59:04.008Z,2.60
2019-01-19T15:01:50.463Z,2.70
2019-01-19T15:04:30.967Z,1.95
2019-01-19T15:07:31.055Z,1.80
2019-01-19T15:10:08.184Z,2.60
2019-01-19T15:12:39.847Z,2.27
2019-01-19T15:15:11.482Z,2.20
2019-01-19T15:17:48.753Z,2.70
2019-01-19T15:20:44.194Z,2.42
2019-01-19T15:23:33.102Z,2.33
2019-01-19T15:26:19.871Z,3.10
2019-01-19T15:29:18.119Z,2.95
2019-01-19T15:32:10.027Z,3.85
2019-01-19T15:34:50.386Z,5.10
2019-01-19T15:37:24.974Z,5.42
2019-01-19T15:40:02.334Z,4.83
2019-01-19T15:43:05.232Z,4.30
2019-01-19T15:45:39.726Z,4.83
2019-01-19T15:48:27.860Z,3.52
2019-01-19T15:50:59.504Z,3.17
2019-01-19T15:53:37.019Z,5.05
2019-01-19T15:56:36.455Z,5.28
2019-01-19T15:59:11.039Z,5.00
2019-01-19T16:02:06.483Z,3.90
2019-01-19T16:04:43.680Z,3.62
2019-01-19T16:07:29.989Z,3.02
2019-01-19T16:10:19.587Z,5.05
2019-01-19T16:13:08.144Z,4.33
2019-01-19T16:15:51.386Z,4.35
2019-01-19T16:18:37.220Z,7.55
2019-01-19T16:21:37.784Z,8.20
2019-01-19T16:24:11.978Z,7.20
2019-01-19T16:26:55.677Z,11.05
2019-01-19T16:29:33.034Z,9.65
2019-01-19T16:32:22.376Z,6.78
2019-01-19T16:35:19.105Z,6.10
2019-01-19T16:38:02.547Z,6.95
2019-01-19T16:40:36.814Z,8.23
2019-01-19T16:43:35.406Z,5.53
2019-01-19T16:46:27.643Z,8.68
2019-01-19T16:49:16.808Z,9.03
2019-01-19T16:52:15.415Z,13.95
2019-01-19T16:55:07.692Z,15.03
2019-01-19T16:58:03.295Z,14.30
2019-01-19T17:00:37.478Z,11.28
2019-01-19T17:03:17.888Z,9.60
2019-01-19T17:06:19.525Z,12.18
2019-01-19T17:08:53.843Z,9.63
2019-01-19T17:11:28.417Z,10.75
2019-01-19T17:14:25.326Z,9.38
2019-01-19T17:16:57.043Z,9.15
2019-01-19T17:19:46.407Z,11.83
2019-01-19T17:22:23.635Z,7.67
2019-01-19T17:25:13.314Z,13.25
2019-01-19T17:27:47.679Z,6.25
2019-01-19T17:30:34.313Z,5.15
2019-01-19T17:33:11.816Z,5.40
2019-01-19T17:35:43.588Z,5.47
2019-01-19T17:38:27.050Z,5.87
2019-01-19T17:41:28.716Z,6.40
2019-01-19T17:44:21.586Z,7.80
2019-01-19T17:46:59.353Z,9.23
2019-01-19T17:49:45.862Z,8.50
2019-01-19T17:52:17.782Z,7.17
2019-01-19T17:55:01.712Z,11.48
2019-01-19T17:57:33.533Z,18.35
2019-01-19T18:00:19.978Z,8.00
2019-01-19T18:03:00.465Z,11.10
2019-01-19T18:05:32.483Z,12.78
2019-01-19T18:08:25.591Z,11.00
2019-01-19T18:11:03.791Z,6.92
2019-01-19T18:13:54.028Z,6.83
2019-01-19T18:16:49.830Z,9.15
2019-01-19T18:19:42.986Z,8.38
2019-01-19T18:22:24.047Z,10.00
2019-01-19T18:25:01.883Z,13.10
2019-01-19T18:27:36.560Z,11.20
2019-01-19T18:30:20.550Z,10.45
2019-01-19T18:33:07.221Z,8.70
2019-01-19T18:35:55.464Z,10.25
2019-01-19T18:38:30.209Z,11.65
2019-01-19T18:41:01.969Z,11.90
2019-01-19T18:43:56.327Z,12.88
2019-01-19T18:46:39.876Z,12.50
2019-01-19T18:49:17.704Z,11.57
2019-01-19T18:51:49.337Z,14.28
2019-01-19T18:54:35.816Z,11.45
2019-01-19T18:57:26.681Z,11.65
2019-01-19T19:00:16.027Z,11.45
2019-01-19T19:02:56.307Z,9.55
2019-01-19T19:05:42.920Z,9.13
2019-01-19T19:08:17.363Z,9.00
2019-01-19T19:11:06.763Z,9.98
2019-01-19T19:13:53.067Z,11.68
2019-01-19T19:16:24.988Z,8.78
2019-01-19T19:19:02.410Z,6.08
2019-01-19T19:21:36.887Z,7.85
2019-01-19T19:24:24.772Z,7.22
2019-01-19T19:27:10.591Z,9.18
2019-01-19T19:29:57.127Z,22.77
2019-01-19T19:32:49.643Z,14.10
2019-01-19T19:35:38.558Z,13.83
2019-01-19T19:38:22.175Z,11.63
2019-01-19T19:41:12.963Z,12.63
2019-01-19T19:43:56.339Z,12.85
2019-01-19T19:46:52.019Z,14.10
2019-01-19T19:49:26.271Z,14.75
2019-01-19T19:52:00.162Z,13.35
2019-01-19T19:54:28.995Z,13.88
2019-01-19T19:56:58.007Z,11.40
2019-01-19T19:59:26.683Z,10.98
2019-01-19T20:01:55.259Z,12.23
2019-01-19T20:04:23.855Z,13.53
2019-01-19T20:06:52.662Z,14.40
2019-01-19T20:09:21.322Z,16.73
2019-01-19T20:11:50.977Z,13.83
2019-01-19T20:14:19.590Z,16.82
2019-01-19T20:16:48.163Z,13.35
2019-01-19T20:19:16.758Z,13.75
2019-01-19T20:21:45.327Z,13.85
2019-01-19T20:24:13.950Z,15.30
2019-01-19T20:26:42.496Z,12.03
2019-01-19T20:29:11.756Z,12.18
2019-01-19T20:31:40.323Z,11.50
2019-01-19T20:34:08.919Z,9.73
2019-01-19T20:36:37.491Z,10.60
2019-01-19T20:39:07.833Z,9.00
2019-01-19T20:41:36.385Z,9.30
2019-01-19T20:44:05.248Z,11.60
2019-01-19T20:46:33.887Z,10.60
2019-01-19T20:49:02.544Z,11.80
2019-01-19T20:51:31.111Z,10.10
2019-01-19T20:53:59.711Z,12.15
2019-01-19T20:56:28.282Z,11.45
2019-01-19T20:58:56.879Z,12.33
2019-01-19T21:01:25.442Z,12.45
2019-01-19T21:03:54.043Z,11.83
2019-01-19T21:06:22.616Z,15.00
2019-01-19T21:08:51.207Z,14.00
2019-01-19T21:11:19.774Z,14.00
2019-01-19T21:13:48.416Z,13.40
2019-01-19T21:16:16.988Z,12.05
2019-01-19T21:18:45.584Z,15.00
2019-01-19T21:21:14.151Z,15.15
2019-01-19T21:23:42.751Z,15.48
2019-01-19T21:26:11.322Z,15.60
2019-01-19T21:28:39.923Z,16.65
2019-01-19T21:31:08.491Z,18.07
2019-01-19T21:33:37.071Z,17.50
2019-01-19T21:36:05.727Z,15.98
2019-01-19T21:38:34.300Z,17.17
2019-01-19T21:41:02.893Z,16.32
2019-01-19T21:43:31.580Z,15.85
2019-01-19T21:46:00.244Z,17.85
2019-01-19T21:48:28.819Z,17.57
2019-01-19T21:50:57.414Z,18.73
2019-01-19T21:53:25.986Z,17.37
2019-01-19T21:55:54.583Z,17.60
2019-01-19T21:58:23.160Z,14.73
2019-01-19T22:00:51.751Z,15.90
2019-01-19T22:03:20.318Z,17.55
2019-01-19T22:05:49.757Z,19.35
2019-01-19T22:08:18.546Z,21.50
2019-01-19T22:10:47.210Z,19.17
2019-01-19T22:13:15.774Z,19.15
2019-01-19T22:15:44.370Z,17.73
2019-01-19T22:18:12.941Z,15.95
2019-01-19T22:20:41.531Z,15.30
2019-01-19T22:23:10.105Z,14.65
2019-01-19T22:25:38.702Z,13.05
2019-01-19T22:28:07.258Z,14.07
2019-01-19T22:30:35.846Z,16.73
2019-01-19T22:33:04.650Z,16.45
2019-01-19T22:35:33.306Z,13.72
2019-01-19T22:38:01.879Z,15.55
2019-01-19T22:40:30.471Z,14.98
2019-01-19T22:42:59.067Z,17.17
2019-01-19T22:45:27.654Z,18.25
2019-01-19T22:47:56.223Z,14.95
2019-01-19T22:50:24.825Z,16.73
2019-01-19T22:52:53.401Z,15.85
2019-01-19T22:55:21.987Z,18.73
2019-01-19T22:57:50.550Z,19.48
2019-01-19T23:00:59.679Z,18.60
2019-01-19T23:03:29.690Z,16.73
2019-01-19T23:05:58.460Z,19.35
2019-01-19T23:08:27.038Z,17.98
2019-01-19T23:11:01.111Z,18.05
2019-01-19T23:13:25.839Z,17.00
2019-01-19T23:15:54.433Z,19.20
2019-01-19T23:18:23.005Z,18.12
2019-01-19T23:20:51.664Z,16.77
2019-01-19T23:23:20.312Z,15.60
2019-01-19T23:25:48.907Z,16.17
2019-01-19T23:28:17.481Z,17.00
2019-01-19T23:30:46.079Z,16.35
2019-01-19T23:33:14.645Z,18.42
2019-01-19T23:35:43.232Z,19.17
2019-01-19T23:38:11.807Z,19.32
2019-01-19T23:40:40.403Z,17.52
2019-01-19T23:43:08.979Z,17.50
2019-01-19T23:45:37.571Z,17.57
2019-01-19T23:48:06.138Z,16.57
2019-01-19T23:50:34.731Z,17.40
2019-01-19T23:53:03.305Z,16.05
2019-01-19T23:55:31.895Z,18.02
2019-01-19T23:58:00.471Z,16.12
